Kensington, Connecticut
Current Conditions -  °F | °C
As of 11:53 AM on Thursday 30 Oct 2014 (Local Time) from KMMK Reporting Station
Few Clouds Few Clouds  
Wind Chill: 57°   Ceiling: Unl
Heat Index: 57°   Visibility: 10mi
Dew Point: 37°   Wind: 9mph
Humidity: 47%   Direction: 340°NNW
Pressure: 29.97"   Gusts: NA
Location:  41.63°N, 72.77°W
Report Text: KMMK 301553Z AUTO 34008KT 10SM FEW044 14/03 A2997 RMK AO2 SLP148 T01390028 TSNO
Loading
Personal Weather Stations






























Interactive Weather Map
Tropical Storm Tracking
New forecast layout! Learn more

10-Day Weather Forecast

Advertisements
Track Severe Weather on mobile